createdAt,value
2023-05-03T00:01:15.482Z,4.00
2023-05-03T00:06:15.463Z,4.10
2023-05-03T00:11:15.351Z,4.60
2023-05-03T00:16:15.307Z,4.50
2023-05-03T00:21:15.233Z,4.30
2023-05-03T00:26:15.178Z,4.20
2023-05-03T00:31:15.202Z,4.70
2023-05-03T00:36:15.086Z,5.10
2023-05-03T00:41:14.985Z,4.70
2023-05-03T00:46:17.433Z,5.00
2023-05-03T00:51:14.855Z,5.50
2023-05-03T00:56:14.770Z,5.20
2023-05-03T01:01:14.723Z,5.20
2023-05-03T01:06:14.653Z,5.20
2023-05-03T01:11:14.577Z,4.70
2023-05-03T01:16:14.589Z,5.30
2023-05-03T01:21:14.446Z,5.10
2023-05-03T01:26:14.394Z,5.20
2023-05-03T01:31:14.378Z,4.70
2023-05-03T01:36:14.254Z,4.20
2023-05-03T01:41:14.177Z,4.80
2023-05-03T01:46:14.214Z,4.40
2023-05-03T01:51:14.088Z,4.10
2023-05-03T01:56:13.985Z,3.90
2023-05-03T02:01:13.972Z,3.70
2023-05-03T02:06:13.906Z,3.50
2023-05-03T02:11:13.781Z,2.80
2023-05-03T02:16:13.828Z,3.10
2023-05-03T02:21:14.045Z,2.60
2023-05-03T02:26:13.600Z,3.10
2023-05-03T02:31:13.652Z,2.80
2023-05-03T02:36:13.467Z,2.70
2023-05-03T02:41:13.386Z,2.60
2023-05-03T02:46:13.360Z,2.70
2023-05-03T02:51:13.255Z,2.70
2023-05-03T02:56:13.224Z,2.90
2023-05-03T03:01:13.195Z,3.10
2023-05-03T03:06:13.137Z,3.30
2023-05-03T03:11:13.001Z,3.80
2023-05-03T03:16:12.950Z,3.50
2023-05-03T03:21:12.861Z,3.40
2023-05-03T03:26:12.835Z,2.80
2023-05-03T03:31:12.753Z,3.70
2023-05-03T03:36:12.656Z,4.20
2023-05-03T03:41:12.603Z,3.70
2023-05-03T03:46:12.519Z,3.60
2023-05-03T03:51:12.454Z,3.40
2023-05-03T03:56:12.392Z,3.20
2023-05-03T04:01:12.320Z,3.40
2023-05-03T04:06:12.281Z,3.50
2023-05-03T04:11:12.198Z,3.70
2023-05-03T04:16:12.122Z,4.00
2023-05-03T04:21:12.062Z,3.50
2023-05-03T04:26:23.532Z,3.70
2023-05-03T04:31:12.942Z,3.70
2023-05-03T04:36:11.839Z,3.40
2023-05-03T04:41:13.440Z,3.20
2023-05-03T04:46:11.757Z,3.20
2023-05-03T04:51:11.650Z,2.80
2023-05-03T04:56:11.579Z,2.70
2023-05-03T05:01:11.517Z,3.10
2023-05-03T05:06:11.465Z,3.10
2023-05-03T05:11:11.392Z,2.80
2023-05-03T05:16:11.310Z,2.80
2023-05-03T05:21:11.243Z,2.60
2023-05-03T05:26:11.189Z,2.40
2023-05-03T05:31:11.182Z,2.30
2023-05-03T05:36:11.058Z,2.50
2023-05-03T05:41:10.966Z,2.30
2023-05-03T05:46:10.875Z,2.20
2023-05-03T05:51:10.812Z,2.10
2023-05-03T05:56:10.741Z,2.00
2023-05-03T06:01:10.698Z,2.00
2023-05-03T06:06:10.619Z,2.20
2023-05-03T06:11:10.561Z,2.20
2023-05-03T06:16:10.487Z,2.40
2023-05-03T06:21:10.449Z,2.10
2023-05-03T06:26:10.344Z,2.10
2023-05-03T06:31:10.317Z,2.00
2023-05-03T06:36:10.218Z,2.40
2023-05-03T06:41:10.195Z,2.10
2023-05-03T06:46:10.175Z,2.00
2023-05-03T06:51:10.024Z,1.90
2023-05-03T06:56:09.965Z,2.20
2023-05-03T07:01:09.931Z,2.00
2023-05-03T07:06:09.886Z,1.90
2023-05-03T07:11:09.770Z,1.80
2023-05-03T07:16:09.723Z,2.00
2023-05-03T07:21:09.737Z,1.80
2023-05-03T07:26:09.566Z,1.90
2023-05-03T07:31:09.496Z,2.10
2023-05-03T07:36:09.427Z,2.00
2023-05-03T07:41:09.393Z,1.70
2023-05-03T07:46:09.333Z,1.70
2023-05-03T07:51:09.243Z,1.90
2023-05-03T07:56:09.172Z,1.70
2023-05-03T08:01:09.142Z,1.70
2023-05-03T08:06:09.103Z,1.90
2023-05-03T08:11:08.983Z,1.60
2023-05-03T08:16:08.957Z,1.80
2023-05-03T08:21:08.854Z,1.60
2023-05-03T08:26:08.793Z,2.20
2023-05-03T08:31:08.975Z,1.80
2023-05-03T08:36:08.676Z,2.20
2023-05-03T08:41:08.607Z,1.80
2023-05-03T08:46:08.569Z,1.90
2023-05-03T08:51:08.464Z,1.60
2023-05-03T08:56:08.392Z,2.00
2023-05-03T09:01:08.363Z,1.90
2023-05-03T09:06:09.292Z,1.80
2023-05-03T09:11:08.197Z,1.90
2023-05-03T09:16:08.134Z,2.20
2023-05-03T09:21:08.065Z,1.70
2023-05-03T09:26:08.037Z,2.10
2023-05-03T09:31:08.000Z,1.70
2023-05-03T09:36:08.031Z,1.80
2023-05-03T09:41:07.947Z,2.00
2023-05-03T09:46:07.800Z,2.30
2023-05-03T09:51:07.752Z,2.00
2023-05-03T09:56:07.662Z,1.90
2023-05-03T10:01:07.684Z,2.10
2023-05-03T10:06:07.559Z,2.20
2023-05-03T10:11:07.431Z,2.00
2023-05-03T10:16:07.400Z,2.20
2023-05-03T10:21:07.314Z,3.10
2023-05-03T10:26:07.282Z,2.20
2023-05-03T10:31:07.202Z,2.00
2023-05-03T10:36:07.133Z,2.40
2023-05-03T10:41:07.101Z,2.30
2023-05-03T10:46:07.106Z,3.40
2023-05-03T10:51:06.914Z,2.10
2023-05-03T10:56:06.879Z,2.00
2023-05-03T11:01:06.820Z,2.00
2023-05-03T11:06:06.761Z,2.00
2023-05-03T11:11:06.628Z,1.90
2023-05-03T11:16:06.660Z,2.10
2023-05-03T11:21:06.499Z,2.00
2023-05-03T11:26:06.460Z,1.80
2023-05-03T11:31:06.389Z,1.80
2023-05-03T11:36:06.312Z,1.60
2023-05-03T11:41:06.218Z,1.60
2023-05-03T11:46:06.221Z,1.50
2023-05-03T11:51:06.109Z,2.10
2023-05-03T11:56:06.009Z,1.70
2023-05-03T12:01:05.996Z,2.30
2023-05-03T12:06:06.702Z,1.80
2023-05-03T12:11:06.588Z,1.70
2023-05-03T12:16:12.936Z,1.90
2023-05-03T12:21:30.826Z,1.60
2023-05-03T12:26:09.533Z,1.80
2023-05-03T12:31:05.832Z,1.70
2023-05-03T12:36:09.251Z,1.80
2023-05-03T12:41:08.763Z,1.80
2023-05-03T12:46:32.099Z,1.80
2023-05-03T12:56:06.723Z,1.80
2023-05-03T13:01:37.044Z,1.70
2023-05-03T13:06:12.529Z,1.50
2023-05-03T13:11:06.391Z,1.80
2023-05-03T13:16:05.512Z,1.90
2023-05-03T13:21:04.890Z,1.80
2023-05-03T13:26:04.832Z,1.50
2023-05-03T13:31:04.752Z,1.70
2023-05-03T13:36:04.657Z,2.10
2023-05-03T13:41:04.630Z,2.10
2023-05-03T13:46:04.568Z,1.80
2023-05-03T13:51:04.462Z,1.80
2023-05-03T13:56:04.396Z,1.80
2023-05-03T14:01:04.481Z,1.70
2023-05-03T14:06:04.263Z,2.10
2023-05-03T14:11:06.125Z,1.70
2023-05-03T14:16:04.129Z,1.60
2023-05-03T14:21:04.077Z,1.80
2023-05-03T14:26:04.002Z,1.70
2023-05-03T14:31:03.986Z,1.80
2023-05-03T14:36:03.863Z,1.70
2023-05-03T14:41:03.791Z,1.70
2023-05-03T14:46:03.714Z,1.80
2023-05-03T14:51:03.658Z,1.80
2023-05-03T14:56:03.602Z,1.60
2023-05-03T15:01:03.599Z,1.70
2023-05-03T15:06:03.456Z,1.60
2023-05-03T15:11:03.443Z,1.60
2023-05-03T15:16:03.333Z,1.50
2023-05-03T15:21:03.254Z,1.70
2023-05-03T15:26:03.179Z,1.90
2023-05-03T15:31:03.162Z,1.70
2023-05-03T15:36:03.191Z,1.80
2023-05-03T15:41:03.004Z,1.60
2023-05-03T15:46:02.961Z,1.40
2023-05-03T15:51:02.844Z,1.50
2023-05-03T15:56:02.786Z,1.50
2023-05-03T16:01:02.757Z,1.40
2023-05-03T16:06:02.675Z,1.40
2023-05-03T16:11:02.595Z,1.60
2023-05-03T16:16:02.571Z,1.60
2023-05-03T16:21:02.486Z,1.40
2023-05-03T16:26:02.380Z,1.90
2023-05-03T16:31:02.333Z,1.40
2023-05-03T16:36:02.276Z,1.50
2023-05-03T16:41:02.202Z,3.40
2023-05-03T16:46:02.146Z,1.70
2023-05-03T16:51:02.057Z,1.70
2023-05-03T16:56:01.978Z,1.60
2023-05-03T17:01:01.938Z,1.60
2023-05-03T17:06:03.721Z,1.60
2023-05-03T17:11:01.799Z,1.50
2023-05-03T17:16:01.712Z,1.60
2023-05-03T17:21:01.652Z,1.60
2023-05-03T17:26:01.586Z,1.50
2023-05-03T17:31:01.537Z,1.70
2023-05-03T17:36:01.452Z,1.80
2023-05-03T17:41:01.379Z,1.70
2023-05-03T17:46:01.353Z,1.50
2023-05-03T17:51:01.358Z,1.80
2023-05-03T17:56:01.201Z,1.60
2023-05-03T18:01:01.136Z,2.00
2023-05-03T18:06:01.038Z,2.20
2023-05-03T18:11:00.973Z,1.80
2023-05-03T18:16:00.989Z,1.70
2023-05-03T18:21:00.861Z,1.90
2023-05-03T18:26:00.771Z,1.80
2023-05-03T18:31:00.731Z,1.80
2023-05-03T18:36:00.651Z,1.70
2023-05-03T18:41:00.583Z,1.90
2023-05-03T18:46:00.504Z,1.80
2023-05-03T18:51:00.449Z,1.80
2023-05-03T18:56:00.385Z,2.40
2023-05-03T19:01:00.613Z,2.60
2023-05-03T19:06:00.236Z,2.60
2023-05-03T19:11:00.180Z,2.60
2023-05-03T19:16:00.151Z,2.60
2023-05-03T19:21:00.103Z,3.40
2023-05-03T19:26:00.003Z,4.10
2023-05-03T19:30:59.969Z,3.50
2023-05-03T19:36:00.023Z,4.10
2023-05-03T19:40:59.801Z,4.70
2023-05-03T19:45:59.824Z,2.80
2023-05-03T19:50:59.693Z,3.10
2023-05-03T19:55:59.600Z,3.00
2023-05-03T20:00:59.556Z,3.10
2023-05-03T20:05:59.470Z,3.90
2023-05-03T20:11:00.204Z,3.90
2023-05-03T20:15:59.353Z,3.50
2023-05-03T20:20:59.252Z,3.90
2023-05-03T20:25:59.177Z,4.70
2023-05-03T20:30:59.100Z,6.20
2023-05-03T20:35:59.081Z,6.80
2023-05-03T20:40:58.978Z,6.70
2023-05-03T20:45:58.952Z,6.00
2023-05-03T20:50:58.844Z,4.80
2023-05-03T20:55:58.783Z,5.80
2023-05-03T21:00:58.765Z,3.90
2023-05-03T21:05:58.641Z,3.20
2023-05-03T21:10:58.594Z,3.80
2023-05-03T21:15:58.509Z,4.10
2023-05-03T21:20:58.433Z,4.20
2023-05-03T21:25:58.364Z,4.50
2023-05-03T21:30:58.305Z,5.00
2023-05-03T21:35:58.231Z,4.00
2023-05-03T21:40:58.182Z,3.70
2023-05-03T21:45:58.150Z,3.40
2023-05-03T21:50:58.046Z,4.00
2023-05-03T21:55:57.965Z,4.00
2023-05-03T22:00:57.902Z,4.40
2023-05-03T22:05:57.838Z,4.20
2023-05-03T22:10:57.775Z,4.20
2023-05-03T22:15:57.737Z,4.50
2023-05-03T22:20:57.643Z,5.30
2023-05-03T22:25:57.587Z,5.60
2023-05-03T22:30:57.513Z,5.10
2023-05-03T22:35:57.446Z,5.70
2023-05-03T22:40:57.387Z,5.70
2023-05-03T22:45:57.357Z,5.90
2023-05-03T22:50:57.251Z,6.40
2023-05-03T22:55:57.182Z,6.80
2023-05-03T23:00:57.144Z,7.10
2023-05-03T23:05:57.061Z,7.20
2023-05-03T23:10:56.984Z,6.60
2023-05-03T23:15:57.153Z,7.00
2023-05-03T23:20:56.844Z,6.40
2023-05-03T23:25:56.786Z,6.40
2023-05-03T23:30:56.726Z,6.90
2023-05-03T23:35:56.636Z,6.60
2023-05-03T23:40:56.567Z,6.50
2023-05-03T23:45:56.517Z,6.80
2023-05-03T23:50:56.439Z,6.50
2023-05-03T23:55:56.366Z,6.40
